Time;durP1;ratioP1;P1;durP2;ratioP2;P2;SDS_P1;SDS_P2;PMS_P1;PMS_P2;Temp;Humidity;BMP_temperature;BMP_pressure;BME280_temperature;BME280_humidity;BME280_pressure;Samples;Min_cycle;Max_cycle;Signal;HPM_P1;HPM_P2
2020/12/06 00:00:39;;;;;;;25.02;14.90;;;2.30;92.70;;;;;;6299744;22;27789;-50
2020/12/06 00:03:24;;;;;;;23.58;15.02;;;2.30;92.70;;;;;;6299660;22;27330;-52
2020/12/06 00:06:08;;;;;;;24.65;15.73;;;2.40;92.80;;;;;;6300241;22;27343;-49
2020/12/06 00:08:53;;;;;;;22.65;15.20;;;2.40;92.70;;;;;;6300512;22;27263;-48
2020/12/06 00:11:37;;;;;;;24.13;14.23;;;2.30;92.70;;;;;;6301573;22;27267;-52
2020/12/06 00:14:22;;;;;;;22.70;14.90;;;2.40;92.70;;;;;;6300668;22;27260;-52
2020/12/06 00:17:06;;;;;;;25.80;15.20;;;2.30;92.70;;;;;;6301399;22;27334;-50
2020/12/06 00:19:51;;;;;;;22.20;14.13;;;2.30;92.80;;;;;;6301586;22;27347;-50
2020/12/06 00:22:35;;;;;;;20.75;14.02;;;2.40;92.80;;;;;;6300795;22;27851;-49
2020/12/06 00:25:19;;;;;;;23.10;14.52;;;2.30;92.80;;;;;;6301233;22;27503;-49
2020/12/06 00:28:04;;;;;;;19.88;13.80;;;2.30;92.80;;;;;;6301283;22;27430;-49
2020/12/06 00:30:48;;;;;;;23.90;14.80;;;2.40;92.80;;;;;;6300292;22;27375;-50
2020/12/06 00:33:33;;;;;;;24.10;13.43;;;2.40;92.90;;;;;;6301521;22;27467;-50
2020/12/06 00:36:17;;;;;;;23.27;14.45;;;2.40;92.90;;;;;;6301431;22;27425;-50
2020/12/06 00:39:02;;;;;;;20.27;13.48;;;2.30;92.80;;;;;;6301557;22;26916;-50
2020/12/06 00:41:47;;;;;;;20.45;13.93;;;2.40;92.90;;;;;;6300081;22;27369;-49
2020/12/06 00:44:31;;;;;;;21.35;13.63;;;2.30;92.80;;;;;;6300414;22;27790;-48
2020/12/06 00:47:16;;;;;;;19.77;12.82;;;2.40;92.80;;;;;;6300150;22;27273;-49
2020/12/06 00:50:03;;;;;;;20.17;13.82;;;2.30;92.80;;;;;;6300714;22;27292;-52
2020/12/06 00:52:47;;;;;;;20.30;13.85;;;2.30;92.80;;;;;;6301065;22;27348;-50
2020/12/06 00:55:32;;;;;;;21.67;14.00;;;2.30;92.80;;;;;;6301266;22;27456;-50
2020/12/06 00:58:19;;;;;;;18.10;12.45;;;2.30;92.90;;;;;;6270352;22;27390;-50
2020/12/06 01:01:04;;;;;;;21.63;13.57;;;2.30;92.80;;;;;;6270371;22;27412;-52
2020/12/06 01:03:48;;;;;;;20.42;13.65;;;2.30;92.90;;;;;;6270288;22;27404;-51
2020/12/06 01:06:32;;;;;;;21.30;13.18;;;2.30;92.90;;;;;;6270272;22;27409;-51
2020/12/06 01:09:17;;;;;;;19.15;12.50;;;2.30;92.90;;;;;;6270218;22;27404;-50
2020/12/06 01:12:02;;;;;;;18.80;12.32;;;2.30;92.80;;;;;;6270088;22;27281;-50
2020/12/06 01:14:47;;;;;;;21.58;12.68;;;2.30;92.80;;;;;;6270312;22;27363;-49
2020/12/06 01:17:32;;;;;;;17.33;11.52;;;2.30;92.90;;;;;;6247097;22;27621;-50
2020/12/06 01:20:16;;;;;;;24.15;12.57;;;2.30;93.00;;;;;;6270099;22;27645;-52
2020/12/06 01:23:01;;;;;;;17.30;12.43;;;2.30;92.90;;;;;;6270234;22;27407;-50
2020/12/06 01:25:45;;;;;;;18.73;11.30;;;2.30;92.90;;;;;;6270344;22;27270;-52
2020/12/06 01:28:30;;;;;;;19.42;12.13;;;2.30;92.90;;;;;;6247436;22;27273;-59
2020/12/06 01:31:14;;;;;;;18.05;12.23;;;2.30;92.90;;;;;;6269849;22;27304;-49
2020/12/06 01:33:59;;;;;;;18.88;12.65;;;2.30;92.90;;;;;;6269895;22;27280;-49
2020/12/06 01:36:43;;;;;;;18.42;13.02;;;2.30;92.90;;;;;;6269966;22;27254;-50
2020/12/06 01:39:28;;;;;;;20.75;13.77;;;2.30;93.00;;;;;;6269873;22;27793;-50
2020/12/06 01:42:12;;;;;;;17.98;11.88;;;2.30;93.00;;;;;;6270022;22;27337;-50
2020/12/06 01:45:00;;;;;;;18.70;13.00;;;2.30;93.00;;;;;;6270253;22;27361;-50
2020/12/06 01:47:45;;;;;;;16.20;11.95;;;2.30;93.00;;;;;;6269888;22;27316;-51
2020/12/06 01:50:30;;;;;;;15.82;11.57;;;2.30;93.10;;;;;;6247468;22;27867;-51
2020/12/06 01:53:14;;;;;;;21.58;12.00;;;2.30;93.10;;;;;;6225969;22;27309;-50
2020/12/06 01:55:59;;;;;;;16.90;11.70;;;2.30;93.10;;;;;;6231224;22;27289;-50
2020/12/06 01:58:43;;;;;;;18.27;12.70;;;2.30;93.10;;;;;;6300735;22;27276;-49
2020/12/06 02:01:30;;;;;;;21.80;12.63;;;2.30;93.10;;;;;;6300582;22;27753;-52
2020/12/06 02:04:15;;;;;;;17.83;11.98;;;2.30;93.10;;;;;;6299848;22;27458;-47
2020/12/06 02:07:00;;;;;;;17.67;12.27;;;2.30;93.10;;;;;;6300278;22;27321;-46
2020/12/06 02:09:46;;;;;;;16.20;11.55;;;2.30;93.10;;;;;;6301074;22;27300;-48
2020/12/06 02:12:31;;;;;;;17.65;12.18;;;2.30;93.10;;;;;;6300354;22;27281;-56
2020/12/06 02:15:15;;;;;;;18.95;13.02;;;2.30;93.00;;;;;;6300665;22;27329;-47
2020/12/06 02:18:00;;;;;;;19.20;11.93;;;2.30;93.10;;;;;;6301088;22;27346;-47
2020/12/06 02:20:44;;;;;;;18.85;11.77;;;2.30;93.00;;;;;;6301038;22;27280;-47
2020/12/06 02:23:29;;;;;;;17.35;11.10;;;2.30;93.00;;;;;;6300812;22;27858;-47
2020/12/06 02:26:13;;;;;;;20.35;12.93;;;2.30;93.00;;;;;;6300993;22;27514;-46
2020/12/06 02:28:58;;;;;;;20.00;12.75;;;2.30;93.10;;;;;;6301052;22;27328;-57
2020/12/06 02:31:42;;;;;;;20.35;12.55;;;2.30;93.10;;;;;;6300268;22;26852;-46
2020/12/06 02:34:27;;;;;;;15.90;11.63;;;2.30;93.10;;;;;;6301005;22;27341;-46
2020/12/06 02:37:11;;;;;;;17.50;12.15;;;2.30;93.10;;;;;;6300518;22;27410;-46
2020/12/06 02:39:56;;;;;;;17.05;11.52;;;2.30;93.10;;;;;;6300954;22;27412;-46
2020/12/06 02:42:40;;;;;;;19.65;13.43;;;2.30;93.10;;;;;;6300774;22;27398;-48
2020/12/06 02:45:25;;;;;;;18.15;11.70;;;2.30;93.10;;;;;;6300790;22;27441;-46
2020/12/06 02:48:09;;;;;;;20.60;12.48;;;2.30;93.10;;;;;;6300832;22;27520;-46
2020/12/06 02:50:54;;;;;;;17.23;11.63;;;2.30;93.10;;;;;;6300549;22;27430;-46
2020/12/06 02:53:38;;;;;;;19.05;11.95;;;2.30;93.10;;;;;;6300423;22;27346;-46
2020/12/06 02:56:23;;;;;;;18.98;12.70;;;2.30;93.40;;;;;;6300037;22;27428;-46
2020/12/06 02:59:07;;;;;;;18.88;13.40;;;2.30;93.10;;;;;;6300414;22;27366;-46
2020/12/06 03:01:52;;;;;;;17.85;12.00;;;2.30;93.20;;;;;;6300616;22;27625;-45
2020/12/06 03:04:36;;;;;;;17.63;12.23;;;2.30;93.20;;;;;;6300121;22;27364;-57
2020/12/06 03:07:21;;;;;;;18.40;12.30;;;2.30;93.20;;;;;;6300278;22;27804;-46
2020/12/06 03:10:06;;;;;;;20.05;12.13;;;2.30;93.30;;;;;;6300370;22;27268;-47
2020/12/06 03:12:50;;;;;;;18.98;13.05;;;2.30;93.30;;;;;;6300518;22;27338;-44
2020/12/06 03:15:35;;;;;;;19.10;11.13;;;2.30;93.20;;;;;;6300695;22;27311;-45
2020/12/06 03:18:20;;;;;;;17.65;11.75;;;2.30;93.20;;;;;;6300175;22;27271;-46
2020/12/06 03:21:04;;;;;;;17.17;11.93;;;2.30;93.20;;;;;;6300233;22;27385;-46
2020/12/06 03:23:49;;;;;;;17.90;11.98;;;2.30;93.20;;;;;;6300278;22;27401;-45
2020/12/06 03:26:33;;;;;;;19.83;11.85;;;2.30;93.30;;;;;;6300218;22;27280;-46
2020/12/06 03:29:18;;;;;;;21.83;12.57;;;2.30;93.30;;;;;;6300499;22;27269;-45
2020/12/06 03:32:02;;;;;;;19.60;12.85;;;2.30;93.20;;;;;;6299783;22;27479;-43
2020/12/06 03:34:47;;;;;;;20.40;12.30;;;2.30;93.10;;;;;;6300538;22;27414;-46
2020/12/06 03:37:31;;;;;;;20.85;12.50;;;2.30;93.10;;;;;;6300395;22;27343;-45
2020/12/06 03:40:16;;;;;;;19.40;11.95;;;2.30;93.10;;;;;;6300337;22;27383;-46
2020/12/06 03:43:00;;;;;;;18.52;11.68;;;2.30;93.20;;;;;;6299848;22;27439;-46
2020/12/06 03:45:45;;;;;;;20.08;12.48;;;2.30;93.20;;;;;;6301523;22;27375;-47
2020/12/06 03:48:29;;;;;;;19.50;12.98;;;2.30;93.20;;;;;;6301401;22;27421;-47
2020/12/06 03:51:14;;;;;;;20.80;12.93;;;2.30;93.30;;;;;;6301476;22;27359;-47
2020/12/06 03:53:58;;;;;;;18.90;12.07;;;2.30;93.20;;;;;;6301681;22;27359;-46
2020/12/06 03:56:43;;;;;;;18.52;11.52;;;2.30;93.20;;;;;;6300959;22;26951;-50
2020/12/06 03:59:27;;;;;;;16.33;11.40;;;2.30;93.20;;;;;;6301036;22;27468;-51
2020/12/06 04:02:13;;;;;;;16.05;10.60;;;2.30;93.30;;;;;;6300570;22;27904;-46
2020/12/06 04:04:58;;;;;;;17.40;11.32;;;2.30;93.40;;;;;;6301652;22;27405;-46
2020/12/06 04:07:42;;;;;;;19.67;12.02;;;2.30;93.40;;;;;;6301390;22;27357;-57
2020/12/06 04:10:27;;;;;;;18.20;11.02;;;2.30;93.40;;;;;;6301679;22;27410;-46
2020/12/06 04:13:12;;;;;;;17.02;11.50;;;2.30;93.40;;;;;;6301223;22;27333;-46
2020/12/06 04:15:56;;;;;;;18.95;12.15;;;2.30;93.40;;;;;;6301581;22;27320;-46
2020/12/06 04:18:41;;;;;;;18.60;11.90;;;2.30;93.30;;;;;;6301283;22;27281;-46
2020/12/06 04:21:25;;;;;;;21.45;12.23;;;2.30;93.40;;;;;;6301482;22;27334;-45
2020/12/06 04:24:12;;;;;;;20.58;11.75;;;2.30;93.40;;;;;;6300548;22;27328;-46
2020/12/06 04:26:56;;;;;;;19.75;11.77;;;2.30;93.50;;;;;;6301172;22;27264;-47
2020/12/06 04:29:41;;;;;;;17.65;11.10;;;2.30;93.40;;;;;;6301217;22;27263;-47
2020/12/06 04:32:28;;;;;;;18.52;12.07;;;2.30;93.40;;;;;;6300616;22;27415;-47
2020/12/06 04:35:12;;;;;;;17.90;10.95;;;2.30;93.40;;;;;;6301429;22;27363;-46
2020/12/06 04:37:57;;;;;;;20.40;12.10;;;2.30;93.40;;;;;;6301459;22;27329;-46
2020/12/06 04:40:41;;;;;;;19.45;11.27;;;2.30;93.40;;;;;;6301593;22;27350;-46
2020/12/06 04:43:25;;;;;;;16.95;11.10;;;2.30;93.40;;;;;;6301379;22;27319;-46
2020/12/06 04:46:11;;;;;;;16.10;11.25;;;2.30;93.40;;;;;;6300372;22;27866;-47
2020/12/06 04:49:06;;;;;;;16.50;11.02;;;2.30;93.40;;;;;;6300194;22;27330;-45
2020/12/06 04:51:54;;;;;;;16.58;11.43;;;2.30;93.40;;;;;;6299994;22;27099;-46
2020/12/06 04:54:39;;;;;;;17.10;10.77;;;2.30;93.40;;;;;;6301278;22;27408;-46
2020/12/06 04:57:23;;;;;;;19.80;11.60;;;2.30;93.40;;;;;;6277997;22;27849;-46
2020/12/06 05:00:09;;;;;;;18.50;11.98;;;2.30;93.40;;;;;;6301410;22;27395;-45
2020/12/06 05:02:54;;;;;;;18.20;11.00;;;2.30;93.30;;;;;;6301343;22;27423;-46
2020/12/06 05:05:39;;;;;;;18.50;11.15;;;2.30;93.40;;;;;;6300334;22;27348;-46
2020/12/06 05:08:24;;;;;;;16.70;11.25;;;2.30;93.40;;;;;;6301351;22;27417;-46
2020/12/06 05:11:12;;;;;;;18.17;11.45;;;2.30;93.30;;;;;;6300947;22;27551;-47
2020/12/06 05:13:56;;;;;;;19.02;10.75;;;2.30;93.30;;;;;;6300998;22;27354;-46
2020/12/06 05:16:41;;;;;;;18.05;10.82;;;2.30;93.40;;;;;;6300991;22;27358;-46
2020/12/06 05:19:26;;;;;;;17.02;10.70;;;2.30;93.30;;;;;;6300997;22;27350;-45
2020/12/06 05:22:11;;;;;;;17.83;10.57;;;2.30;93.40;;;;;;6301117;22;27385;-45
2020/12/06 05:24:56;;;;;;;17.33;10.98;;;2.30;93.40;;;;;;6300156;22;27464;-45
2020/12/06 05:27:41;;;;;;;17.52;10.48;;;2.30;93.40;;;;;;6300024;22;27425;-45
2020/12/06 05:30:26;;;;;;;19.58;11.65;;;2.30;93.40;;;;;;6301300;22;27405;-45
2020/12/06 05:33:11;;;;;;;18.88;11.38;;;2.30;93.40;;;;;;6301204;22;27438;-46
2020/12/06 05:36:00;;;;;;;17.65;11.50;;;2.30;93.40;;;;;;6300982;22;27356;-45
2020/12/06 05:38:44;;;;;;;17.15;11.02;;;2.30;93.40;;;;;;6301246;22;27267;-46
2020/12/06 05:41:32;;;;;;;16.35;10.48;;;2.30;93.40;;;;;;6301063;22;27295;-46
2020/12/06 05:44:20;;;;;;;18.95;10.65;;;2.30;93.40;;;;;;6300357;22;27366;-46
2020/12/06 05:47:14;;;;;;;16.50;10.25;;;2.30;93.30;;;;;;6300872;22;27406;-46
2020/12/06 05:49:59;;;;;;;17.83;10.45;;;2.30;93.30;;;;;;6300776;22;27398;-46
2020/12/06 05:52:43;;;;;;;14.38;9.73;;;2.30;93.40;;;;;;6300774;22;27435;-45
2020/12/06 05:55:28;;;;;;;17.77;10.98;;;2.30;93.40;;;;;;6300735;22;27367;-46
2020/12/06 05:58:12;;;;;;;16.73;10.90;;;2.30;93.30;;;;;;6278384;22;27409;-45
2020/12/06 06:00:56;;;;;;;18.55;10.63;;;2.30;93.40;;;;;;6278475;22;27277;-59
2020/12/06 06:03:48;;;;;;;19.38;11.48;;;2.30;93.40;;;;;;6277781;22;27786;-46
2020/12/06 06:06:39;;;;;;;17.63;10.63;;;2.30;93.40;;;;;;6300440;22;27277;-46
2020/12/06 06:09:23;;;;;;;19.63;11.32;;;2.30;93.40;;;;;;6301100;22;27379;-59
2020/12/06 06:12:11;;;;;;;20.48;12.20;;;2.30;93.40;;;;;;6277983;22;27377;-46
2020/12/06 06:14:57;;;;;;;21.70;11.70;;;2.30;93.30;;;;;;6300499;22;27352;-46
2020/12/06 06:17:41;;;;;;;19.08;11.75;;;2.30;93.40;;;;;;6300645;22;27355;-46
2020/12/06 06:20:27;;;;;;;21.25;12.10;;;2.30;93.40;;;;;;6278290;22;27357;-48
2020/12/06 06:23:12;;;;;;;23.73;12.18;;;2.30;93.80;;;;;;6299690;22;27433;-47
2020/12/06 06:25:59;;;;;;;21.92;12.70;;;2.30;93.40;;;;;;6301000;22;27817;-46
2020/12/06 06:28:44;;;;;;;23.02;12.98;;;2.30;93.40;;;;;;6277926;22;27513;-47
2020/12/06 06:31:31;;;;;;;22.17;12.73;;;2.30;93.50;;;;;;6301151;22;27326;-46
2020/12/06 06:34:16;;;;;;;23.17;12.75;;;2.30;93.40;;;;;;6299616;22;27357;-46
2020/12/06 06:37:00;;;;;;;21.70;12.30;;;2.30;93.50;;;;;;6300864;22;27796;-47
2020/12/06 06:39:45;;;;;;;22.13;13.00;;;2.30;93.50;;;;;;6299651;22;27286;-61
2020/12/06 06:42:31;;;;;;;22.20;12.38;;;2.30;93.50;;;;;;6300472;22;27303;-61
2020/12/06 06:45:15;;;;;;;22.02;11.30;;;2.30;93.40;;;;;;6300640;22;27338;-47
2020/12/06 06:48:00;;;;;;;22.33;12.43;;;2.30;93.50;;;;;;6300842;22;27325;-47
2020/12/06 06:50:48;;;;;;;21.25;11.82;;;2.30;93.50;;;;;;6277752;22;27328;-48
2020/12/06 06:53:33;;;;;;;20.98;12.43;;;2.30;93.40;;;;;;6300599;22;27340;-47
2020/12/06 06:56:18;;;;;;;20.48;11.95;;;2.30;93.40;;;;;;6300264;22;27399;-47
2020/12/06 06:59:03;;;;;;;18.67;11.27;;;2.30;93.50;;;;;;6300748;22;27352;-47
2020/12/06 07:01:48;;;;;;;19.85;11.45;;;2.30;93.40;;;;;;6300282;22;27398;-47
2020/12/06 07:04:33;;;;;;;25.25;13.23;;;2.40;93.50;;;;;;6300548;22;27426;-47
2020/12/06 07:07:38;;;;;;;20.05;11.82;;;2.30;93.50;;;;;;6300682;22;27425;-47
2020/12/06 07:10:24;;;;;;;25.45;12.85;;;2.30;93.50;;;;;;6299894;22;27428;-46
2020/12/06 07:13:08;;;;;;;21.23;12.98;;;2.40;93.50;;;;;;6300206;22;27401;-47
2020/12/06 07:15:53;;;;;;;25.80;12.23;;;2.30;93.40;;;;;;6300365;22;27418;-47
2020/12/06 07:18:38;;;;;;;23.80;13.38;;;2.40;93.40;;;;;;6301585;22;27573;-47
2020/12/06 07:21:30;;;;;;;21.23;12.10;;;2.40;93.50;;;;;;6301367;22;27413;-47
2020/12/06 07:24:18;;;;;;;22.33;12.55;;;2.40;93.50;;;;;;6301822;22;27298;-47
2020/12/06 07:27:02;;;;;;;19.88;12.27;;;2.40;93.40;;;;;;6301880;22;27441;-48
2020/12/06 07:29:49;;;;;;;25.95;13.02;;;2.40;93.40;;;;;;6300585;22;27260;-48
2020/12/06 07:32:34;;;;;;;22.40;12.82;;;2.40;93.50;;;;;;6301597;22;27344;-48
2020/12/06 07:35:23;;;;;;;22.58;12.55;;;2.40;93.40;;;;;;6301366;22;27415;-48
2020/12/06 07:38:08;;;;;;;22.65;12.65;;;2.40;93.40;;;;;;6301154;22;27339;-49
2020/12/06 07:41:02;;;;;;;24.45;12.27;;;2.40;93.40;;;;;;6301951;22;27091;-47
2020/12/06 07:43:52;;;;;;;22.02;11.77;;;2.40;93.40;;;;;;6301715;22;27425;-46
2020/12/06 07:46:37;;;;;;;25.98;12.98;;;2.40;93.50;;;;;;6300530;22;27331;-50
2020/12/06 07:49:22;;;;;;;23.63;12.35;;;2.40;93.40;;;;;;6301358;22;27280;-48
2020/12/06 07:52:20;;;;;;;24.60;13.93;;;2.40;93.40;;;;;;6301724;22;27340;-48
2020/12/06 07:55:09;;;;;;;21.33;11.60;;;2.40;93.40;;;;;;6301318;22;27936;-48
2020/12/06 07:57:54;;;;;;;22.10;12.45;;;2.50;93.40;;;;;;6300771;22;27572;-47
2020/12/06 08:00:39;;;;;;;19.85;11.73;;;2.50;93.40;;;;;;6301665;22;27330;-48
2020/12/06 08:03:27;;;;;;;28.38;15.40;;;2.50;93.30;;;;;;6299765;22;27383;-48
2020/12/06 08:06:11;;;;;;;25.00;13.38;;;2.50;93.40;;;;;;6301621;22;27347;-48
2020/12/06 08:08:58;;;;;;;26.20;14.50;;;2.50;93.20;;;;;;6278872;22;27285;-48
2020/12/06 08:11:45;;;;;;;26.20;14.40;;;2.50;93.20;;;;;;6301629;22;27407;-50
2020/12/06 08:14:30;;;;;;;25.75;14.35;;;2.60;93.20;;;;;;6301523;22;27364;-48
2020/12/06 08:17:15;;;;;;;24.45;13.38;;;2.60;93.10;;;;;;6301533;22;27919;-51
2020/12/06 08:20:10;;;;;;;22.42;12.27;;;2.60;93.00;;;;;;6301164;22;27406;-48
2020/12/06 08:22:56;;;;;;;21.25;12.52;;;2.70;92.90;;;;;;6301154;22;27428;-48
2020/12/06 08:25:46;;;;;;;24.17;13.88;;;2.70;92.90;;;;;;6301607;22;27413;-47
2020/12/06 08:28:31;;;;;;;21.63;12.52;;;2.70;92.80;;;;;;6301109;22;27335;-46
2020/12/06 08:31:20;;;;;;;22.33;13.82;;;2.80;92.70;;;;;;6300560;22;27280;-48
2020/12/06 08:34:08;;;;;;;24.83;13.98;;;2.80;92.70;;;;;;6301183;22;27362;-49
2020/12/06 08:36:53;;;;;;;30.48;15.23;;;2.80;92.70;;;;;;6301566;22;27281;-49
2020/12/06 08:39:37;;;;;;;26.73;15.45;;;2.90;92.80;;;;;;6301119;22;27816;-48
2020/12/06 08:42:22;;;;;;;32.97;16.20;;;2.90;92.90;;;;;;6301357;22;27430;-48
2020/12/06 08:45:07;;;;;;;27.33;14.60;;;3.00;92.90;;;;;;6301176;22;27395;-48
2020/12/06 08:47:51;;;;;;;27.92;15.57;;;3.00;92.80;;;;;;6301083;22;26808;-48
2020/12/06 08:50:36;;;;;;;26.38;14.25;;;3.00;92.80;;;;;;6301452;22;27383;-48
2020/12/06 08:53:21;;;;;;;25.48;14.48;;;3.10;92.60;;;;;;6301061;22;27430;-62
2020/12/06 08:56:06;;;;;;;26.08;14.13;;;3.10;92.50;;;;;;6301030;22;27402;-48
2020/12/06 08:58:50;;;;;;;25.05;14.10;;;3.20;92.40;;;;;;6301431;22;27406;-61
2020/12/06 09:01:54;;;;;;;23.10;14.18;;;3.20;92.50;;;;;;6301241;22;27407;-48
2020/12/06 09:04:39;;;;;;;24.13;13.93;;;3.30;92.40;;;;;;6301024;22;27413;-46
2020/12/06 09:07:23;;;;;;;27.75;13.93;;;3.30;92.30;;;;;;6301092;22;27425;-48
2020/12/06 09:10:08;;;;;;;23.70;12.65;;;3.40;92.20;;;;;;6301275;22;27389;-48
2020/12/06 09:12:53;;;;;;;25.05;13.02;;;3.40;92.10;;;;;;6301240;22;27532;-48
2020/12/06 09:15:37;;;;;;;26.73;13.52;;;3.50;92.00;;;;;;6301297;22;27335;-47
2020/12/06 09:18:22;;;;;;;26.77;13.88;;;3.50;92.10;;;;;;6301338;22;27285;-48
2020/12/06 09:21:07;;;;;;;25.80;14.10;;;3.50;92.10;;;;;;6300924;22;27349;-48
2020/12/06 09:23:52;;;;;;;24.33;13.85;;;3.50;92.00;;;;;;6300554;22;27546;-48
2020/12/06 09:26:38;;;;;;;28.40;14.05;;;3.50;92.00;;;;;;6301265;22;27331;-50
2020/12/06 09:29:23;;;;;;;29.52;14.57;;;3.50;92.00;;;;;;6301296;22;27427;-48
2020/12/06 09:32:07;;;;;;;31.13;15.85;;;3.60;92.00;;;;;;6301246;22;27388;-48
2020/12/06 09:34:52;;;;;;;26.25;14.88;;;3.60;92.10;;;;;;6299868;22;27354;-48
2020/12/06 09:37:36;;;;;;;31.27;14.32;;;3.60;92.00;;;;;;6300668;22;27282;-47
2020/12/06 09:40:21;;;;;;;23.27;13.90;;;3.60;92.00;;;;;;6300765;22;27284;-47
2020/12/06 09:43:05;;;;;;;25.67;14.88;;;3.60;92.00;;;;;;6300468;22;27362;-47
2020/12/06 09:45:50;;;;;;;26.40;14.93;;;3.60;91.90;;;;;;6301082;22;27805;-47
2020/12/06 09:48:35;;;;;;;26.02;13.75;;;3.60;91.90;;;;;;6300821;22;27339;-49
2020/12/06 09:51:19;;;;;;;25.85;14.32;;;3.60;91.80;;;;;;6300768;22;27335;-47
2020/12/06 09:54:04;;;;;;;27.58;15.45;;;3.70;92.00;;;;;;6300814;22;27281;-62
2020/12/06 09:56:48;;;;;;;21.95;14.23;;;3.70;91.90;;;;;;6300327;22;27900;-49
2020/12/06 09:59:33;;;;;;;23.38;13.65;;;3.70;92.00;;;;;;6300345;22;27366;-48
2020/12/06 10:02:17;;;;;;;29.42;14.63;;;3.70;92.20;;;;;;6300143;22;27408;-62
2020/12/06 10:05:04;;;;;;;24.33;13.73;;;3.80;92.00;;;;;;6301056;22;27419;-47
2020/12/06 10:07:49;;;;;;;20.70;12.93;;;3.90;91.80;;;;;;6300713;22;27913;-49
2020/12/06 10:10:34;;;;;;;23.92;13.65;;;3.90;91.70;;;;;;6301122;22;27392;-46
2020/12/06 10:13:18;;;;;;;22.02;13.95;;;4.00;91.50;;;;;;6301056;22;27313;-46
2020/12/06 10:16:02;;;;;;;22.52;13.73;;;4.00;91.40;;;;;;6301179;22;27338;-48
2020/12/06 10:18:47;;;;;;;20.92;13.02;;;4.00;91.80;;;;;;6300622;22;27353;-47
2020/12/06 10:21:32;;;;;;;21.83;13.93;;;4.10;91.50;;;;;;6300149;22;27394;-48
2020/12/06 10:24:16;;;;;;;23.05;14.70;;;4.10;91.60;;;;;;6300658;22;27467;-48
2020/12/06 10:27:01;;;;;;;20.38;12.65;;;4.10;91.70;;;;;;6300637;22;27453;-48
2020/12/06 10:29:45;;;;;;;19.65;12.77;;;4.20;91.50;;;;;;6300515;22;27416;-50
2020/12/06 10:32:30;;;;;;;22.02;12.82;;;4.20;91.40;;;;;;6300850;22;27383;-48
2020/12/06 10:35:14;;;;;;;23.10;13.05;;;4.30;91.40;;;;;;6301436;22;27406;-48
2020/12/06 10:37:59;;;;;;;19.90;13.32;;;4.30;91.40;;;;;;6300944;22;26820;-51
2020/12/06 10:40:43;;;;;;;21.65;13.27;;;4.50;91.20;;;;;;6300520;22;27409;-49
2020/12/06 10:43:27;;;;;;;20.05;12.45;;;4.60;91.20;;;;;;6300861;22;27542;-48
2020/12/06 10:46:12;;;;;;;21.50;12.40;;;4.70;91.10;;;;;;6300446;22;27317;-48
2020/12/06 10:48:57;;;;;;;21.35;12.82;;;4.80;90.80;;;;;;6300615;22;27334;-49
2020/12/06 10:51:42;;;;;;;20.10;11.45;;;4.90;90.70;;;;;;6300767;22;27332;-49
2020/12/06 10:54:27;;;;;;;20.02;11.73;;;5.00;90.50;;;;;;6300518;22;27272;-48
2020/12/06 10:57:11;;;;;;;17.08;11.02;;;5.10;90.60;;;;;;6300404;22;27525;-51
2020/12/06 10:59:56;;;;;;;19.17;11.48;;;5.20;90.20;;;;;;6300795;22;27327;-48
2020/12/06 11:02:40;;;;;;;15.80;10.20;;;5.30;90.30;;;;;;6300654;22;27262;-51
2020/12/06 11:05:26;;;;;;;17.13;10.20;;;5.40;90.00;;;;;;6300383;22;27272;-61
2020/12/06 11:08:11;;;;;;;18.35;10.15;;;5.40;89.70;;;;;;6277888;22;27346;-50
2020/12/06 11:10:55;;;;;;;15.40;10.07;;;5.40;89.60;;;;;;6300402;22;27302;-50
2020/12/06 11:13:40;;;;;;;16.23;10.07;;;5.50;89.70;;;;;;6300770;22;27327;-51
2020/12/06 11:16:25;;;;;;;16.55;10.38;;;5.60;89.50;;;;;;6300714;22;27368;-51
2020/12/06 11:19:10;;;;;;;15.00;9.82;;;5.60;89.50;;;;;;6300631;22;27352;-54
2020/12/06 11:21:54;;;;;;;16.48;8.90;;;5.60;89.50;;;;;;6300223;22;27387;-54
2020/12/06 11:24:39;;;;;;;15.25;9.25;;;5.60;89.40;;;;;;6300561;22;27801;-51
2020/12/06 11:27:23;;;;;;;13.65;9.38;;;5.70;89.30;;;;;;6300532;22;27335;-52
2020/12/06 11:30:08;;;;;;;15.73;9.65;;;5.70;89.00;;;;;;6300250;22;27330;-51
2020/12/06 11:32:52;;;;;;;12.35;8.63;;;5.80;89.00;;;;;;6300495;22;27407;-51
2020/12/06 11:35:36;;;;;;;13.73;8.77;;;5.80;89.00;;;;;;6299116;22;27406;-63
2020/12/06 11:38:21;;;;;;;12.38;8.52;;;5.90;88.80;;;;;;6300004;22;27358;-52
2020/12/06 11:41:08;;;;;;;14.60;9.07;;;5.90;88.60;;;;;;6299811;22;27413;-53
2020/12/06 11:43:53;;;;;;;13.43;9.70;;;6.00;88.80;;;;;;6299970;22;27303;-51
2020/12/06 11:46:38;;;;;;;14.93;8.63;;;6.00;88.60;;;;;;6300450;22;27368;-56
2020/12/06 11:49:23;;;;;;;13.30;9.13;;;6.10;88.60;;;;;;6300214;22;27494;-51
2020/12/06 11:52:08;;;;;;;14.68;9.10;;;6.10;88.50;;;;;;6300981;22;26812;-52
2020/12/06 11:54:52;;;;;;;13.05;9.15;;;6.20;88.60;;;;;;6300786;22;27414;-54
2020/12/06 11:57:37;;;;;;;11.32;7.65;;;6.20;88.60;;;;;;6298641;22;27396;-54
2020/12/06 12:00:22;;;;;;;13.75;8.70;;;6.20;88.50;;;;;;6299778;22;27422;-53
2020/12/06 12:03:06;;;;;;;11.07;8.40;;;6.30;88.30;;;;;;6299848;22;27336;-54
2020/12/06 12:05:50;;;;;;;10.75;7.32;;;6.40;88.20;;;;;;6301002;22;27414;-64
2020/12/06 12:08:35;;;;;;;8.32;6.60;;;6.50;88.10;;;;;;6300893;22;27395;-64
2020/12/06 12:11:21;;;;;;;10.52;7.53;;;6.50;87.90;;;;;;6301076;22;27451;-49
2020/12/06 12:14:06;;;;;;;11.98;7.53;;;6.60;87.90;;;;;;6301245;22;27359;-49
2020/12/06 12:16:51;;;;;;;11.05;7.45;;;6.60;87.60;;;;;;6301536;22;27352;-49
2020/12/06 12:19:35;;;;;;;11.65;6.97;;;6.70;87.50;;;;;;6301172;22;27797;-48
2020/12/06 12:22:20;;;;;;;7.60;6.25;;;6.70;87.50;;;;;;6300964;22;27395;-49
2020/12/06 12:25:05;;;;;;;9.73;6.70;;;6.70;87.30;;;;;;6301673;22;27363;-51
2020/12/06 12:27:49;;;;;;;7.22;5.68;;;6.80;87.30;;;;;;6301201;22;27366;-48
2020/12/06 12:30:34;;;;;;;9.85;6.45;;;6.80;87.20;;;;;;6301411;22;27427;-48
2020/12/06 12:33:19;;;;;;;8.63;6.65;;;6.80;87.20;;;;;;6302217;22;27359;-48
2020/12/06 12:36:03;;;;;;;7.07;5.65;;;6.80;87.20;;;;;;6300744;22;27395;-51
2020/12/06 12:38:48;;;;;;;7.78;6.30;;;6.80;87.20;;;;;;6301054;22;27357;-48
2020/12/06 12:41:35;;;;;;;7.70;5.57;;;6.80;87.20;;;;;;6301080;22;27999;-52
2020/12/06 12:44:20;;;;;;;9.95;6.57;;;6.80;87.20;;;;;;6301068;22;27358;-64
2020/12/06 12:47:05;;;;;;;8.70;5.45;;;6.80;87.10;;;;;;6301163;22;27359;-64
2020/12/06 12:49:49;;;;;;;7.07;5.28;;;6.80;87.20;;;;;;6300981;22;27394;-49
2020/12/06 12:52:34;;;;;;;8.13;5.53;;;6.80;87.30;;;;;;6301021;22;27430;-50
2020/12/06 12:55:19;;;;;;;6.65;5.40;;;6.80;87.40;;;;;;6300995;22;27372;-49
2020/12/06 12:58:06;;;;;;;7.82;5.20;;;6.80;87.30;;;;;;6301196;22;27435;-48
2020/12/06 13:00:50;;;;;;;7.43;5.35;;;6.80;87.30;;;;;;6300945;22;27320;-61
2020/12/06 13:03:35;;;;;;;6.95;5.35;;;6.80;87.30;;;;;;6300540;22;27399;-48
2020/12/06 13:06:21;;;;;;;6.55;5.20;;;6.80;87.20;;;;;;6301300;22;27408;-51
2020/12/06 13:09:06;;;;;;;6.43;5.03;;;6.80;87.20;;;;;;6301053;22;27399;-50
2020/12/06 13:11:51;;;;;;;8.07;5.20;;;6.70;87.30;;;;;;6301817;22;27280;-49
2020/12/06 13:14:35;;;;;;;6.55;5.10;;;6.70;87.40;;;;;;6301307;22;27448;-49
2020/12/06 13:17:20;;;;;;;6.75;5.43;;;6.60;87.50;;;;;;6301116;22;27433;-48
2020/12/06 13:20:05;;;;;;;8.15;6.15;;;6.50;87.60;;;;;;6300968;22;27406;-49
2020/12/06 13:22:49;;;;;;;9.40;6.57;;;6.50;87.90;;;;;;6301108;22;26871;-49
2020/12/06 13:25:34;;;;;;;9.10;6.40;;;6.40;88.20;;;;;;6300843;22;27410;-49
2020/12/06 13:28:18;;;;;;;8.45;6.65;;;6.30;88.40;;;;;;6301143;22;27397;-48
2020/12/06 13:31:03;;;;;;;8.95;6.55;;;6.20;88.70;;;;;;6300995;22;27582;-48
2020/12/06 13:33:48;;;;;;;8.32;6.45;;;6.10;88.90;;;;;;6301333;22;27288;-48
2020/12/06 13:36:32;;;;;;;7.82;6.65;;;6.00;89.10;;;;;;6300826;22;27271;-65
2020/12/06 13:39:17;;;;;;;9.07;6.13;;;6.00;89.40;;;;;;6300821;22;27355;-49
2020/12/06 13:42:05;;;;;;;8.35;5.30;;;5.90;89.60;;;;;;6300745;22;27335;-48
2020/12/06 13:44:50;;;;;;;8.82;6.88;;;5.90;89.80;;;;;;6300923;22;27374;-49
2020/12/06 13:47:34;;;;;;;6.85;5.75;;;5.80;90.00;;;;;;6301036;22;27335;-53
2020/12/06 13:50:19;;;;;;;8.57;6.35;;;5.80;90.00;;;;;;6300916;22;27355;-46
2020/12/06 13:53:03;;;;;;;8.00;5.93;;;5.70;90.10;;;;;;6301416;22;27380;-63
2020/12/06 13:55:48;;;;;;;8.77;6.40;;;5.70;90.10;;;;;;6287658;22;27418;-50
2020/12/06 13:58:33;;;;;;;7.55;5.65;;;5.70;90.20;;;;;;6269108;22;28618;-64
2020/12/06 14:01:18;;;;;;;8.55;5.82;;;5.60;90.20;;;;;;6270048;22;27365;-61
2020/12/06 14:04:05;;;;;;;8.13;5.93;;;5.60;90.20;;;;;;6269697;22;27344;-47
2020/12/06 14:06:51;;;;;;;8.85;6.22;;;5.60;90.30;;;;;;6270046;22;27367;-61
2020/12/06 14:09:36;;;;;;;7.80;5.95;;;5.60;90.40;;;;;;6268699;22;27388;-47
2020/12/06 14:12:20;;;;;;;6.50;5.78;;;5.50;90.50;;;;;;6269622;22;27461;-47